Time;durP1;ratioP1;P1;durP2;ratioP2;P2;SDS_P1;SDS_P2;PMS_P1;PMS_P2;Temp;Humidity;BMP_temperature;BMP_pressure;BME280_temperature;BME280_humidity;BME280_pressure;Samples;Min_cycle;Max_cycle;Signal;HPM_P1;HPM_P2
2023/11/29 00:01:39;;;;;;;10.70;9.60;;;0.90;99.90;;;;;;5075693;28;20209;-75
2023/11/29 00:04:25;;;;;;;9.90;8.60;;;0.80;99.90;;;;;;5082700;28;20195;-76
2023/11/29 00:07:12;;;;;;;16.52;9.57;;;0.80;99.90;;;;;;5064114;28;20333;-75
2023/11/29 00:09:57;;;;;;;10.95;9.00;;;0.90;99.90;;;;;;5083829;28;20273;-75
2023/11/29 00:12:43;;;;;;;10.45;9.35;;;0.80;99.90;;;;;;5082507;28;20213;-75
2023/11/29 00:15:28;;;;;;;11.30;9.38;;;0.70;99.90;;;;;;5075332;28;20297;-75
2023/11/29 00:18:14;;;;;;;13.00;11.13;;;0.60;99.90;;;;;;5069090;28;20208;-75
2023/11/29 00:21:01;;;;;;;12.30;10.02;;;0.60;99.90;;;;;;5065060;28;20277;-75
2023/11/29 00:23:49;;;;;;;12.02;9.85;;;0.60;99.90;;;;;;5076549;28;20200;-75
2023/11/29 00:26:34;;;;;;;10.88;9.70;;;0.70;99.90;;;;;;5068495;28;20806;-75
2023/11/29 00:29:20;;;;;;;13.15;10.68;;;0.60;99.90;;;;;;5076161;28;20698;-76
2023/11/29 00:32:06;;;;;;;10.93;9.68;;;0.50;99.90;;;;;;5063920;28;20779;-75
2023/11/29 00:34:51;;;;;;;14.93;10.55;;;0.50;99.90;;;;;;5075089;28;20231;-75
2023/11/29 00:37:37;;;;;;;15.60;9.68;;;0.50;99.90;;;;;;5066811;28;20267;-75
2023/11/29 00:40:24;;;;;;;11.65;10.32;;;0.50;99.90;;;;;;5068084;28;20279;-75
2023/11/29 00:43:09;;;;;;;12.07;10.88;;;0.50;99.90;;;;;;5077750;28;20208;-75
2023/11/29 00:45:55;;;;;;;16.90;10.60;;;0.50;99.90;;;;;;5070947;28;20224;-75
2023/11/29 00:48:41;;;;;;;12.27;11.07;;;0.50;99.90;;;;;;5078904;28;20294;-75
2023/11/29 00:51:27;;;;;;;12.15;10.85;;;0.50;99.90;;;;;;5077170;28;20196;-75
2023/11/29 00:54:13;;;;;;;12.00;10.80;;;0.50;99.90;;;;;;5082482;28;20223;-75
2023/11/29 00:57:00;;;;;;;12.13;10.93;;;0.50;99.90;;;;;;5078525;28;20738;-75
2023/11/29 00:59:46;;;;;;;13.25;11.95;;;0.30;99.90;;;;;;5067497;28;20679;-76
2023/11/29 01:02:31;;;;;;;15.02;12.68;;;0.20;99.90;;;;;;5087716;28;20199;-75
2023/11/29 01:05:17;;;;;;;13.02;11.73;;;0.20;99.90;;;;;;5083416;28;20740;-75
2023/11/29 01:08:03;;;;;;;12.93;11.63;;;0.10;99.90;;;;;;5071718;28;20221;-75
2023/11/29 01:10:48;;;;;;;17.00;13.20;;;0.00;99.90;;;;;;5080518;28;20207;-75
2023/11/29 01:13:35;;;;;;;13.50;11.70;;;0.10;99.90;;;;;;5067597;28;20215;-75
2023/11/29 01:16:21;;;;;;;13.55;12.15;;;0.00;99.90;;;;;;5093677;28;20737;-75
2023/11/29 01:19:07;;;;;;;13.32;11.90;;;0.00;99.90;;;;;;5074210;28;20229;-75
2023/11/29 01:21:52;;;;;;;12.43;11.05;;;0.00;99.90;;;;;;5082097;28;20709;-75
2023/11/29 01:24:38;;;;;;;11.95;10.75;;;0.00;99.90;;;;;;5072784;28;20199;-74
2023/11/29 01:27:25;;;;;;;12.30;11.05;;;0.10;99.90;;;;;;5074299;28;20204;-75
2023/11/29 01:30:12;;;;;;;12.90;11.57;;;0.10;99.90;;;;;;5080022;28;20715;-75
2023/11/29 01:32:58;;;;;;;12.70;11.32;;;0.10;99.90;;;;;;5081901;28;20211;-74
2023/11/29 01:35:43;;;;;;;12.77;11.48;;;0.20;99.90;;;;;;5076487;28;20408;-75
2023/11/29 01:38:29;;;;;;;13.43;12.13;;;0.20;99.90;;;;;;5086255;28;20241;-75
2023/11/29 01:41:15;;;;;;;13.10;11.80;;;0.30;99.90;;;;;;5079072;28;20204;-75
2023/11/29 01:44:00;;;;;;;12.75;11.55;;;0.20;99.90;;;;;;5070894;28;20271;-75
2023/11/29 01:46:48;;;;;;;12.70;11.30;;;0.20;99.90;;;;;;5086567;28;20322;-75
2023/11/29 01:49:34;;;;;;;12.20;10.88;;;0.10;99.90;;;;;;5081643;28;20667;-74
2023/11/29 01:52:19;;;;;;;17.02;11.48;;;0.10;99.90;;;;;;5070117;28;20204;-74
2023/11/29 01:55:08;;;;;;;13.95;12.55;;;0.00;99.90;;;;;;5074677;28;20816;-75
2023/11/29 01:57:55;;;;;;;13.10;11.73;;;-0.10;99.90;;;;;;5079289;28;20249;-75
2023/11/29 02:00:41;;;;;;;12.77;11.50;;;-0.20;99.90;;;;;;5082322;28;20318;-74
2023/11/29 02:03:28;;;;;;;12.60;11.30;;;-0.20;99.90;;;;;;5064123;28;20718;-76
2023/11/29 02:06:14;;;;;;;13.30;11.38;;;-0.20;99.90;;;;;;5070054;28;20258;-74
2023/11/29 02:08:59;;;;;;;13.90;12.50;;;-0.20;99.90;;;;;;5070166;28;20351;-75
2023/11/29 02:11:46;;;;;;;14.63;12.98;;;-0.30;99.90;;;;;;5084777;28;20222;-74
2023/11/29 02:14:31;;;;;;;14.73;13.18;;;-0.40;99.90;;;;;;5079447;28;20224;-74
2023/11/29 02:17:17;;;;;;;13.10;11.80;;;-0.40;99.90;;;;;;5078603;28;20619;-75
2023/11/29 02:20:05;;;;;;;12.10;10.98;;;-0.40;99.90;;;;;;5074338;28;20207;-74
2023/11/29 02:22:56;;;;;;;15.68;13.10;;;-0.40;99.90;;;;;;5070331;28;20577;-74
2023/11/29 02:25:42;;;;;;;13.30;12.00;;;-0.40;99.90;;;;;;5072898;28;20232;-74
2023/11/29 02:28:28;;;;;;;14.13;12.73;;;-0.40;99.90;;;;;;5070319;28;20200;-76
2023/11/29 02:31:14;;;;;;;13.88;12.55;;;-0.40;99.90;;;;;;5074082;28;20672;-76
2023/11/29 02:34:01;;;;;;;14.27;12.88;;;-0.30;99.90;;;;;;5080093;28;20232;-76
2023/11/29 02:36:47;;;;;;;13.30;11.90;;;-0.40;99.90;;;;;;5085365;28;20224;-75
2023/11/29 02:39:33;;;;;;;14.80;12.75;;;-0.40;99.90;;;;;;5075942;28;20354;-76
2023/11/29 02:42:20;;;;;;;14.02;12.60;;;-0.50;99.90;;;;;;5070154;28;20247;-76
2023/11/29 02:45:07;;;;;;;13.65;12.35;;;-0.40;99.90;;;;;;5075419;28;20679;-76
2023/11/29 02:47:53;;;;;;;14.80;13.23;;;-0.50;99.90;;;;;;5077390;28;20210;-76
2023/11/29 02:50:38;;;;;;;13.85;12.45;;;-0.50;99.90;;;;;;5082433;28;20203;-76
2023/11/29 02:53:24;;;;;;;12.38;11.20;;;-0.50;99.90;;;;;;5078589;28;20686;-76
2023/11/29 02:56:10;;;;;;;13.55;12.25;;;-0.60;99.90;;;;;;5069515;28;20596;-75
2023/11/29 02:58:57;;;;;;;13.60;12.20;;;-0.70;99.90;;;;;;5062950;28;20315;-74
2023/11/29 03:01:42;;;;;;;14.60;12.85;;;-0.70;99.90;;;;;;5075367;28;20203;-76
2023/11/29 03:04:28;;;;;;;15.63;13.93;;;-0.60;99.90;;;;;;5078821;28;20212;-76
2023/11/29 03:07:14;;;;;;;14.68;13.18;;;-0.50;99.90;;;;;;5069320;28;20693;-75
2023/11/29 03:09:59;;;;;;;14.60;13.10;;;-0.50;99.90;;;;;;5077818;28;20214;-76
2023/11/29 03:12:45;;;;;;;14.48;12.98;;;-0.50;99.90;;;;;;5084032;28;20261;-76
2023/11/29 03:15:32;;;;;;;13.73;11.73;;;-0.40;99.90;;;;;;5086294;28;20303;-76
2023/11/29 03:18:18;;;;;;;13.05;11.75;;;-0.40;99.90;;;;;;5087024;28;20487;-76
2023/11/29 03:21:04;;;;;;;15.48;13.88;;;-0.40;99.90;;;;;;5079749;28;20241;-77
2023/11/29 03:23:49;;;;;;;13.27;12.07;;;-0.30;99.90;;;;;;5071053;28;20232;-76
2023/11/29 03:26:41;;;;;;;15.48;13.98;;;-0.30;99.90;;;;;;5083617;28;20231;-76
2023/11/29 03:29:27;;;;;;;16.02;14.32;;;-0.40;99.90;;;;;;5079062;28;20191;-76
2023/11/29 03:32:14;;;;;;;15.18;13.60;;;-0.40;99.90;;;;;;5079873;28;20215;-75
2023/11/29 03:35:00;;;;;;;18.10;13.35;;;-0.30;99.90;;;;;;5080841;28;20588;-76
2023/11/29 03:37:46;;;;;;;21.98;14.27;;;-0.30;99.90;;;;;;5083962;28;20285;-77
2023/11/29 03:40:32;;;;;;;15.02;13.18;;;-0.30;99.90;;;;;;5070911;28;20333;-76
2023/11/29 03:43:17;;;;;;;14.65;13.20;;;-0.20;99.90;;;;;;5076385;28;20849;-76
2023/11/29 03:46:03;;;;;;;15.18;13.55;;;0.00;99.90;;;;;;5081077;28;20275;-76
2023/11/29 03:48:50;;;;;;;14.75;13.05;;;0.10;99.90;;;;;;5080324;28;20238;-76
2023/11/29 03:51:35;;;;;;;17.98;14.10;;;0.20;99.90;;;;;;5076500;28;20222;-76
2023/11/29 03:54:21;;;;;;;14.55;13.07;;;0.20;99.90;;;;;;5071721;28;20201;-76
2023/11/29 03:57:07;;;;;;;14.45;13.05;;;0.20;99.90;;;;;;5079369;28;20231;-75
2023/11/29 03:59:52;;;;;;;15.35;13.00;;;0.20;99.90;;;;;;5081909;28;20214;-75
2023/11/29 04:02:38;;;;;;;15.60;13.80;;;0.10;99.90;;;;;;5081331;28;20227;-74
2023/11/29 04:05:25;;;;;;;14.95;13.45;;;0.00;99.90;;;;;;5082640;28;20578;-74
2023/11/29 04:08:11;;;;;;;15.05;13.60;;;0.00;99.90;;;;;;5070761;28;20313;-74
2023/11/29 04:10:56;;;;;;;14.63;13.13;;;-0.10;99.90;;;;;;5081496;28;20261;-74
2023/11/29 04:13:42;;;;;;;14.93;13.43;;;-0.10;99.90;;;;;;5070715;28;20201;-74
2023/11/29 04:16:29;;;;;;;15.27;13.55;;;-0.10;99.90;;;;;;5075091;28;20223;-74
2023/11/29 04:19:14;;;;;;;14.07;12.57;;;-0.20;99.90;;;;;;5083770;28;20207;-75
2023/11/29 04:22:02;;;;;;;13.68;12.30;;;-0.20;99.90;;;;;;5072924;28;20700;-75
2023/11/29 04:24:47;;;;;;;13.00;11.70;;;-0.20;99.90;;;;;;5075793;28;20246;-74
2023/11/29 04:27:33;;;;;;;13.30;10.98;;;-0.20;99.90;;;;;;5067118;28;20203;-74
2023/11/29 04:30:19;;;;;;;14.23;12.77;;;-0.20;99.90;;;;;;5075687;28;20689;-74
2023/11/29 04:33:05;;;;;;;15.65;12.38;;;-0.10;99.90;;;;;;5076805;28;20253;-75
2023/11/29 04:35:53;;;;;;;13.77;12.38;;;-0.10;99.90;;;;;;5080793;28;20728;-75
2023/11/29 04:38:40;;;;;;;13.65;12.20;;;0.00;99.90;;;;;;5068992;28;20570;-75
2023/11/29 04:41:26;;;;;;;13.70;11.70;;;0.00;99.90;;;;;;5073459;28;20211;-75
2023/11/29 04:44:11;;;;;;;13.80;12.40;;;0.00;99.90;;;;;;5076098;28;20579;-75
2023/11/29 04:46:57;;;;;;;12.18;11.07;;;0.10;99.90;;;;;;5070570;28;20227;-75
2023/11/29 04:49:43;;;;;;;13.50;12.05;;;0.20;99.90;;;;;;5078931;28;20200;-74
2023/11/29 04:52:30;;;;;;;13.25;11.82;;;0.20;99.90;;;;;;5075669;28;20688;-74
2023/11/29 04:55:17;;;;;;;13.25;11.77;;;0.20;99.90;;;;;;5085970;28;20241;-74
2023/11/29 04:58:03;;;;;;;14.18;12.27;;;0.30;99.90;;;;;;5083611;28;20571;-74
2023/11/29 05:00:49;;;;;;;13.00;11.48;;;0.30;99.90;;;;;;5085547;28;20204;-74
2023/11/29 05:03:35;;;;;;;13.68;11.95;;;0.30;99.90;;;;;;5071413;28;20299;-73
2023/11/29 05:06:21;;;;;;;13.80;12.40;;;0.30;99.90;;;;;;5083245;28;20235;-74
2023/11/29 05:09:07;;;;;;;13.35;11.13;;;0.40;99.90;;;;;;5079117;28;20212;-72
2023/11/29 05:11:54;;;;;;;17.70;14.15;;;0.40;99.90;;;;;;5074064;28;20206;-75
2023/11/29 05:14:39;;;;;;;15.95;14.35;;;0.50;99.90;;;;;;5077745;28;20260;-74
2023/11/29 05:17:25;;;;;;;17.65;15.73;;;0.60;99.90;;;;;;5072811;28;20204;-73
2023/11/29 05:20:11;;;;;;;17.23;15.43;;;0.70;99.90;;;;;;5081443;28;20250;-74
2023/11/29 05:22:57;;;;;;;16.35;13.75;;;0.80;99.90;;;;;;5078272;28;20211;-75
2023/11/29 05:25:42;;;;;;;17.05;12.60;;;0.90;99.90;;;;;;5071255;28;20694;-74
2023/11/29 05:28:32;;;;;;;15.93;12.63;;;0.90;99.90;;;;;;5078637;28;20204;-74
2023/11/29 05:31:19;;;;;;;16.20;14.38;;;1.00;99.90;;;;;;5070194;28;20211;-74
2023/11/29 05:34:06;;;;;;;16.27;13.05;;;1.10;99.90;;;;;;5073747;28;20286;-75
2023/11/29 05:36:51;;;;;;;17.00;14.93;;;1.20;99.90;;;;;;5081031;28;20243;-74
2023/11/29 05:39:37;;;;;;;20.08;14.25;;;1.30;99.90;;;;;;5078139;28;20291;-75
2023/11/29 05:42:23;;;;;;;19.73;15.77;;;1.40;99.90;;;;;;5076822;28;20215;-75
2023/11/29 05:45:10;;;;;;;19.52;15.88;;;1.50;99.90;;;;;;5089809;28;20297;-75
2023/11/29 05:47:56;;;;;;;18.27;14.40;;;1.50;99.90;;;;;;5073180;28;20692;-74
2023/11/29 05:50:42;;;;;;;18.17;15.57;;;1.60;99.90;;;;;;5075131;28;20208;-74
2023/11/29 05:53:27;;;;;;;17.92;14.23;;;1.60;99.90;;;;;;5079300;28;20205;-73
2023/11/29 05:56:13;;;;;;;18.17;13.85;;;1.60;99.90;;;;;;5083899;28;20227;-74
2023/11/29 05:58:58;;;;;;;17.58;15.70;;;1.60;99.90;;;;;;5078034;28;20211;-74
2023/11/29 06:01:45;;;;;;;18.63;15.15;;;1.70;99.90;;;;;;5084484;28;20257;-74
2023/11/29 06:04:31;;;;;;;17.02;13.10;;;1.70;99.90;;;;;;5075957;28;20197;-72
2023/11/29 06:07:16;;;;;;;17.55;13.88;;;1.80;99.90;;;;;;5074038;28;20203;-74
2023/11/29 06:10:03;;;;;;;19.23;15.57;;;1.80;99.90;;;;;;5068034;28;20206;-73
2023/11/29 06:12:49;;;;;;;21.30;15.15;;;1.70;99.90;;;;;;5081452;28;20597;-74
2023/11/29 06:15:35;;;;;;;17.10;13.45;;;1.70;99.90;;;;;;5083474;28;20227;-73
2023/11/29 06:18:23;;;;;;;18.10;15.60;;;1.60;99.90;;;;;;5083713;28;20210;-74
2023/11/29 06:21:08;;;;;;;19.17;14.45;;;1.70;99.90;;;;;;5079082;28;20297;-73
2023/11/29 06:23:54;;;;;;;19.17;15.55;;;1.70;99.90;;;;;;5088974;28;20203;-74
2023/11/29 06:26:40;;;;;;;16.27;13.95;;;1.80;99.90;;;;;;5081332;28;20215;-74
2023/11/29 06:29:26;;;;;;;17.48;14.30;;;1.90;99.90;;;;;;5078767;28;20558;-74
2023/11/29 06:32:12;;;;;;;19.15;14.18;;;1.80;99.90;;;;;;5079644;28;20203;-77
2023/11/29 06:34:59;;;;;;;21.75;15.50;;;1.80;99.90;;;;;;5088775;28;20202;-74
2023/11/29 06:37:47;;;;;;;21.00;15.70;;;1.80;99.90;;;;;;5082900;28;20820;-73
2023/11/29 06:40:34;;;;;;;17.30;15.18;;;1.90;99.90;;;;;;5080925;28;20212;-74
2023/11/29 06:43:19;;;;;;;19.52;16.10;;;1.80;99.90;;;;;;5084338;28;20206;-74
2023/11/29 06:46:05;;;;;;;20.23;15.85;;;1.80;99.90;;;;;;5079295;28;20223;-75
2023/11/29 06:48:50;;;;;;;21.92;16.02;;;1.90;99.90;;;;;;5081624;28;20204;-74
2023/11/29 06:51:38;;;;;;;25.58;18.92;;;1.90;99.90;;;;;;5077841;28;20201;-75
2023/11/29 06:54:24;;;;;;;29.13;20.67;;;1.90;99.90;;;;;;5081957;28;20204;-74
2023/11/29 06:57:10;;;;;;;20.05;15.93;;;1.90;99.90;;;;;;5079847;28;20245;-74
2023/11/29 06:59:55;;;;;;;21.38;16.00;;;1.90;99.90;;;;;;5077931;28;20342;-75
2023/11/29 07:02:41;;;;;;;21.42;14.18;;;1.90;99.90;;;;;;5079696;28;20331;-74
2023/11/29 07:05:27;;;;;;;16.75;13.25;;;2.00;99.90;;;;;;5081280;28;20236;-73
2023/11/29 07:08:14;;;;;;;16.40;14.05;;;2.00;99.90;;;;;;5079124;28;20203;-73
2023/11/29 07:11:01;;;;;;;20.50;14.23;;;2.10;99.90;;;;;;5077935;28;20218;-73
2023/11/29 07:13:47;;;;;;;16.23;12.88;;;2.10;99.90;;;;;;5083479;28;20259;-74
2023/11/29 07:16:33;;;;;;;20.67;15.70;;;2.10;99.90;;;;;;5084429;28;20220;-74
2023/11/29 07:19:19;;;;;;;24.10;19.48;;;2.10;99.90;;;;;;5084757;28;20207;-76
2023/11/29 07:22:05;;;;;;;19.90;14.98;;;2.20;99.90;;;;;;5076081;28;20334;-76
2023/11/29 07:24:53;;;;;;;18.92;13.15;;;2.20;99.90;;;;;;5081546;28;20587;-76
2023/11/29 07:27:39;;;;;;;17.88;12.15;;;2.20;99.90;;;;;;5078097;28;20197;-76
2023/11/29 07:30:24;;;;;;;18.20;14.13;;;2.20;99.90;;;;;;5084402;28;20207;-75
2023/11/29 07:33:11;;;;;;;15.18;12.80;;;2.20;99.90;;;;;;5082335;28;20211;-76
2023/11/29 07:35:58;;;;;;;22.20;14.25;;;2.20;99.90;;;;;;5082964;28;20231;-75
2023/11/29 07:38:45;;;;;;;17.83;14.15;;;2.20;99.90;;;;;;5078493;28;20347;-76
2023/11/29 07:41:32;;;;;;;14.55;12.98;;;2.30;99.90;;;;;;5083133;28;20211;-76
2023/11/29 07:44:18;;;;;;;20.33;12.93;;;2.30;99.90;;;;;;5078141;28;20207;-76
2023/11/29 07:47:04;;;;;;;18.20;15.30;;;2.30;99.90;;;;;;5080478;28;20788;-77
2023/11/29 07:49:50;;;;;;;17.77;14.90;;;2.30;99.90;;;;;;5079011;28;20204;-76
2023/11/29 07:52:36;;;;;;;16.73;13.73;;;2.30;99.90;;;;;;5076054;28;20205;-76
2023/11/29 07:55:22;;;;;;;16.50;11.82;;;2.30;99.90;;;;;;5081655;28;20281;-76
2023/11/29 07:58:09;;;;;;;18.92;14.23;;;2.30;99.90;;;;;;5082966;28;20755;-76
2023/11/29 08:00:55;;;;;;;18.60;12.60;;;2.30;99.90;;;;;;5088353;28;20207;-75
2023/11/29 08:03:41;;;;;;;19.48;12.02;;;2.30;99.90;;;;;;5078623;28;20201;-75
2023/11/29 08:06:28;;;;;;;20.38;14.55;;;2.30;99.90;;;;;;5073280;28;20219;-76
2023/11/29 08:09:13;;;;;;;16.13;13.40;;;2.30;99.90;;;;;;5080368;28;20207;-76
2023/11/29 08:11:59;;;;;;;15.45;12.07;;;2.40;99.90;;;;;;5084327;28;20206;-75
2023/11/29 08:14:46;;;;;;;17.15;13.20;;;2.40;99.90;;;;;;5082567;28;20230;-76
2023/11/29 08:17:32;;;;;;;13.27;11.43;;;2.50;99.90;;;;;;5078883;28;20227;-73
2023/11/29 08:20:18;;;;;;;13.35;10.40;;;2.60;99.90;;;;;;5085937;28;20207;-76
2023/11/29 08:23:04;;;;;;;14.50;11.48;;;2.60;99.90;;;;;;5076517;28;20304;-76
2023/11/29 08:25:50;;;;;;;14.32;10.40;;;2.60;99.90;;;;;;5079333;28;20228;-76
2023/11/29 08:28:35;;;;;;;14.85;11.80;;;2.60;99.90;;;;;;5078252;28;20276;-76
2023/11/29 08:31:22;;;;;;;13.48;11.07;;;2.60;99.90;;;;;;5076877;28;20206;-76
2023/11/29 08:34:08;;;;;;;14.18;11.45;;;2.60;99.90;;;;;;5062646;28;20342;-75
2023/11/29 08:36:53;;;;;;;14.68;10.10;;;2.50;99.90;;;;;;5069342;28;20607;-72
2023/11/29 08:39:39;;;;;;;17.10;12.15;;;2.50;99.90;;;;;;5076819;28;20215;-75
2023/11/29 08:42:25;;;;;;;13.65;10.68;;;2.50;99.90;;;;;;5072269;28;20203;-76
2023/11/29 08:45:11;;;;;;;14.80;11.38;;;2.50;99.90;;;;;;5081126;28;20222;-76
2023/11/29 08:47:58;;;;;;;14.55;12.05;;;2.50;99.90;;;;;;5086115;28;20195;-76
2023/11/29 08:50:44;;;;;;;14.60;11.60;;;2.50;99.90;;;;;;5088039;28;20301;-76
2023/11/29 08:53:29;;;;;;;13.90;12.35;;;2.50;99.90;;;;;;5086472;28;20613;-75
2023/11/29 08:56:17;;;;;;;16.33;11.23;;;2.50;99.90;;;;;;5078462;28;20595;-76
2023/11/29 08:59:04;;;;;;;13.40;11.40;;;2.50;99.90;;;;;;5065109;28;20223;-76
2023/11/29 09:01:52;;;;;;;12.88;10.48;;;2.50;99.90;;;;;;5075026;28;20228;-76
2023/11/29 09:04:40;;;;;;;13.40;10.80;;;2.50;99.90;;;;;;5077145;28;20210;-76
2023/11/29 09:07:26;;;;;;;14.35;11.43;;;2.50;99.90;;;;;;5068852;28;20209;-76
2023/11/29 09:10:12;;;;;;;12.50;10.13;;;2.50;99.90;;;;;;5082852;28;20680;-76
2023/11/29 09:12:58;;;;;;;12.93;10.77;;;2.60;99.90;;;;;;5078259;28;20203;-76
2023/11/29 09:15:43;;;;;;;13.05;11.25;;;2.60;99.90;;;;;;5086601;28;20358;-76
2023/11/29 09:18:29;;;;;;;14.57;12.93;;;2.50;99.90;;;;;;5086292;28;20692;-76
2023/11/29 09:21:16;;;;;;;11.95;10.07;;;2.50;99.90;;;;;;5081233;28;20588;-74
2023/11/29 09:24:03;;;;;;;12.50;10.75;;;2.60;99.90;;;;;;5074473;28;20208;-76
2023/11/29 09:26:50;;;;;;;14.65;11.65;;;2.60;99.90;;;;;;5078034;28;20228;-76
2023/11/29 09:29:35;;;;;;;14.52;11.23;;;2.40;99.90;;;;;;5087678;28;20694;-76
2023/11/29 09:32:21;;;;;;;13.48;11.10;;;2.40;99.90;;;;;;5086202;28;20285;-75
2023/11/29 09:35:07;;;;;;;16.80;12.45;;;2.40;99.90;;;;;;5078908;28;20210;-76
2023/11/29 09:37:54;;;;;;;13.85;11.88;;;2.40;99.90;;;;;;5071567;28;20357;-76
2023/11/29 09:40:40;;;;;;;13.85;11.80;;;2.40;99.90;;;;;;5076751;28;20219;-76
2023/11/29 09:43:26;;;;;;;13.18;11.63;;;2.50;99.90;;;;;;5068286;28;20210;-76
2023/11/29 09:46:12;;;;;;;13.98;11.98;;;2.40;99.90;;;;;;5075423;28;20326;-75
2023/11/29 09:48:59;;;;;;;17.48;12.88;;;2.40;99.90;;;;;;5063945;28;20238;-76
2023/11/29 09:51:44;;;;;;;14.38;11.88;;;2.40;99.90;;;;;;5075755;28;20213;-75
2023/11/29 09:54:32;;;;;;;13.75;11.05;;;2.40;99.90;;;;;;5065445;28;20331;-76
2023/11/29 09:57:17;;;;;;;14.95;11.65;;;2.40;99.90;;;;;;5077848;28;20583;-75
2023/11/29 10:00:06;;;;;;;15.18;11.95;;;2.50;99.90;;;;;;5072083;28;20257;-76
2023/11/29 10:02:51;;;;;;;14.50;11.73;;;2.50;99.90;;;;;;5084510;28;20207;-76
2023/11/29 10:05:37;;;;;;;15.02;12.00;;;2.50;99.90;;;;;;5076278;28;20683;-76
2023/11/29 10:08:23;;;;;;;17.60;12.38;;;2.40;99.90;;;;;;5090643;28;20199;-72
2023/11/29 10:11:12;;;;;;;14.55;13.05;;;2.30;99.90;;;;;;5079637;28;20234;-76
2023/11/29 10:13:58;;;;;;;14.48;12.18;;;2.40;99.90;;;;;;5091021;28;20219;-76
2023/11/29 10:16:43;;;;;;;15.15;11.38;;;2.40;99.90;;;;;;5065478;28;20255;-77
2023/11/29 10:19:30;;;;;;;13.70;11.52;;;2.40;99.90;;;;;;5071894;28;20216;-76
2023/11/29 10:22:16;;;;;;;13.75;11.05;;;2.40;99.90;;;;;;5084494;28;20275;-75
2023/11/29 10:25:16;;;;;;;13.93;10.88;;;2.40;99.90;;;;;;5091231;28;20203;-76
2023/11/29 10:28:03;;;;;;;13.18;10.93;;;2.50;99.90;;;;;;5077410;28;20200;-76
2023/11/29 10:30:49;;;;;;;15.30;12.05;;;2.30;99.90;;;;;;5089423;28;20207;-76
2023/11/29 10:33:35;;;;;;;16.17;12.15;;;2.30;99.90;;;;;;5070938;28;20299;-75
2023/11/29 10:36:21;;;;;;;14.52;12.40;;;2.30;99.90;;;;;;5083804;28;20369;-76
2023/11/29 10:39:14;;;;;;;17.45;12.82;;;2.30;99.90;;;;;;5081168;28;20255;-76
2023/11/29 10:42:01;;;;;;;14.43;12.90;;;2.40;99.90;;;;;;5080872;28;20219;-76
2023/11/29 10:44:49;;;;;;;12.90;11.60;;;2.50;99.90;;;;;;5082126;28;20253;-76
2023/11/29 10:47:41;;;;;;;15.02;11.15;;;2.50;99.90;;;;;;5073987;28;20869;-77
2023/11/29 10:50:29;;;;;;;15.13;10.93;;;2.40;99.90;;;;;;5069289;28;20533;-76
2023/11/29 10:53:15;;;;;;;15.18;12.25;;;2.50;99.90;;;;;;5070218;28;20220;-76
2023/11/29 10:56:02;;;;;;;13.82;11.88;;;2.40;99.90;;;;;;5076732;28;20576;-76
2023/11/29 10:58:52;;;;;;;13.85;10.50;;;2.50;99.90;;;;;;5082077;28;20207;-76
2023/11/29 11:01:42;;;;;;;14.70;12.15;;;2.50;99.90;;;;;;5087168;28;20330;-76
2023/11/29 11:04:32;;;;;;;14.93;12.70;;;2.50;99.90;;;;;;5087760;28;20342;-76
2023/11/29 11:07:40;;;;;;;16.00;10.30;;;2.60;99.90;;;;;;5085947;28;20269;-76
2023/11/29 11:10:27;;;;;;;15.63;11.90;;;2.60;99.90;;;;;;5087082;28;20655;-75
2023/11/29 11:13:34;;;;;;;14.07;11.27;;;2.60;99.90;;;;;;5079571;28;20203;-74
2023/11/29 11:16:21;;;;;;;13.02;10.23;;;2.70;99.90;;;;;;5081101;28;20235;-75
2023/11/29 11:19:08;;;;;;;14.60;11.82;;;2.70;99.90;;;;;;5087326;28;20203;-76
2023/11/29 11:21:54;;;;;;;14.30;10.75;;;2.70;99.90;;;;;;5090285;28;20206;-76
2023/11/29 11:25:09;;;;;;;15.90;11.63;;;2.70;99.90;;;;;;5089576;28;20207;-76
2023/11/29 11:27:55;;;;;;;14.20;11.75;;;2.70;99.90;;;;;;5089057;28;20334;-76
2023/11/29 11:30:43;;;;;;;15.00;11.48;;;2.70;99.90;;;;;;5076920;28;20219;-76
2023/11/29 11:34:11;;;;;;;15.93;10.30;;;2.60;99.90;;;;;;5083835;28;20611;-76
2023/11/29 11:36:57;;;;;;;13.85;10.65;;;2.70;99.90;;;;;;5089993;28;20354;-75
2023/11/29 11:39:43;;;;;;;12.60;11.30;;;2.60;99.90;;;;;;5090353;28;20210;-76
2023/11/29 11:42:28;;;;;;;15.30;12.52;;;2.70;99.90;;;;;;5083472;28;20203;-75
2023/11/29 11:45:15;;;;;;;19.15;11.23;;;2.70;99.90;;;;;;5071656;28;20713;-77
2023/11/29 11:48:03;;;;;;;13.73;11.25;;;2.70;99.90;;;;;;5090751;28;20246;-76
2023/11/29 11:50:50;;;;;;;16.23;11.00;;;2.80;99.90;;;;;;5082751;28;20731;-76
2023/11/29 11:53:41;;;;;;;12.93;10.93;;;2.80;99.90;;;;;;5087276;28;20254;-76
2023/11/29 11:56:27;;;;;;;12.05;10.75;;;2.80;99.90;;;;;;5086678;28;20784;-76
2023/11/29 11:59:12;;;;;;;12.88;10.10;;;2.80;99.90;;;;;;5083770;28;20570;-75
2023/11/29 12:01:59;;;;;;;14.30;10.85;;;2.80;99.90;;;;;;5088675;28;20204;-77
2023/11/29 12:04:45;;;;;;;11.52;10.30;;;2.80;99.90;;;;;;5079245;28;20594;-75
2023/11/29 12:07:32;;;;;;;17.27;10.55;;;2.90;99.90;;;;;;5090441;28;20195;-73
2023/11/29 12:10:18;;;;;;;16.95;11.25;;;2.80;99.90;;;;;;5081103;28;20495;-76
2023/11/29 12:13:04;;;;;;;13.32;10.68;;;2.90;99.90;;;;;;5081185;28;20199;-77
2023/11/29 12:15:50;;;;;;;15.43;11.63;;;2.90;99.90;;;;;;5089447;28;20239;-77
2023/11/29 12:18:36;;;;;;;17.20;11.50;;;3.00;99.90;;;;;;5082397;28;20223;-76
2023/11/29 12:21:21;;;;;;;14.75;11.50;;;3.00;99.90;;;;;;5080226;28;20200;-76
2023/11/29 12:24:08;;;;;;;14.70;11.07;;;3.00;99.90;;;;;;5076063;28;20829;-76
2023/11/29 12:26:54;;;;;;;17.95;11.98;;;3.10;99.90;;;;;;5080026;28;20223;-76
2023/11/29 12:29:43;;;;;;;17.00;10.95;;;3.10;99.90;;;;;;5074916;28;20208;-75
2023/11/29 12:32:29;;;;;;;14.98;10.85;;;3.10;99.90;;;;;;5090263;28;20197;-76
2023/11/29 12:35:15;;;;;;;14.95;11.30;;;3.20;99.90;;;;;;5083745;28;20217;-76
2023/11/29 12:38:03;;;;;;;13.57;11.45;;;3.20;99.90;;;;;;5070384;28;20281;-75
2023/11/29 12:40:50;;;;;;;12.18;10.25;;;3.20;99.90;;;;;;5075929;28;20203;-76
2023/11/29 12:43:35;;;;;;;15.40;10.95;;;3.30;99.90;;;;;;5071483;28;20203;-76
2023/11/29 12:46:21;;;;;;;16.35;10.75;;;3.30;99.90;;;;;;5077917;28;20305;-76
2023/11/29 12:49:06;;;;;;;13.38;10.73;;;3.30;99.90;;;;;;5072269;28;20198;-76
2023/11/29 12:51:52;;;;;;;14.10;10.65;;;3.30;99.90;;;;;;5083113;28;20304;-75
2023/11/29 12:54:38;;;;;;;17.25;11.10;;;3.40;99.90;;;;;;5072020;28;20207;-76
2023/11/29 12:57:25;;;;;;;15.68;10.73;;;3.40;99.90;;;;;;5075004;28;20461;-76
2023/11/29 13:00:11;;;;;;;10.63;8.70;;;3.50;99.90;;;;;;5072581;28;20201;-76
2023/11/29 13:02:57;;;;;;;12.82;10.18;;;3.50;99.90;;;;;;5075068;28;20235;-76
2023/11/29 13:05:43;;;;;;;11.82;10.02;;;3.50;99.90;;;;;;5075073;28;20354;-76
2023/11/29 13:08:29;;;;;;;14.77;9.52;;;3.60;99.90;;;;;;5075540;28;20276;-76
2023/11/29 13:11:15;;;;;;;14.45;10.05;;;3.60;99.90;;;;;;5074387;28;20201;-75
2023/11/29 13:14:02;;;;;;;13.68;9.82;;;3.60;99.90;;;;;;5074446;28;20579;-75
2023/11/29 13:16:48;;;;;;;14.15;11.00;;;3.60;99.90;;;;;;5073292;28;20303;-76
2023/11/29 13:19:33;;;;;;;13.07;11.00;;;3.60;99.90;;;;;;5064387;28;20289;-74
2023/11/29 13:22:19;;;;;;;10.90;9.30;;;3.60;99.90;;;;;;5088897;28;20203;-74
2023/11/29 13:25:05;;;;;;;11.80;9.75;;;3.60;99.90;;;;;;5075835;28;20208;-74
2023/11/29 13:27:51;;;;;;;13.20;10.77;;;3.60;99.90;;;;;;5074558;28;20200;-74
2023/11/29 13:30:38;;;;;;;11.38;9.55;;;3.60;99.90;;;;;;5079829;28;20578;-77
2023/11/29 13:33:24;;;;;;;15.90;11.05;;;3.60;99.90;;;;;;5069582;28;20281;-74
2023/11/29 13:36:10;;;;;;;12.93;10.95;;;3.70;99.90;;;;;;5067399;28;20220;-74
2023/11/29 13:38:56;;;;;;;14.32;10.88;;;3.60;99.90;;;;;;5072979;28;20226;-74
2023/11/29 13:41:41;;;;;;;14.00;11.27;;;3.60;99.90;;;;;;5078491;28;20203;-74
2023/11/29 13:44:28;;;;;;;13.98;11.80;;;3.60;99.90;;;;;;5081529;28;20219;-75
2023/11/29 13:47:15;;;;;;;13.10;10.65;;;3.50;99.90;;;;;;5076507;28;20231;-74
2023/11/29 13:50:00;;;;;;;12.82;11.20;;;3.50;99.90;;;;;;5082714;28;20306;-74
2023/11/29 13:52:46;;;;;;;15.82;11.05;;;3.50;99.90;;;;;;5073658;28;20196;-73
2023/11/29 13:55:32;;;;;;;14.32;11.80;;;3.50;99.90;;;;;;5078156;28;20215;-74
2023/11/29 13:58:17;;;;;;;17.20;12.25;;;3.50;99.90;;;;;;5069110;28;20220;-74
2023/11/29 14:01:03;;;;;;;15.95;12.30;;;3.50;99.90;;;;;;5082181;28;20616;-74
2023/11/29 14:03:50;;;;;;;15.48;11.77;;;3.60;99.90;;;;;;5073577;28;20323;-74
2023/11/29 14:06:36;;;;;;;15.82;12.45;;;3.60;99.90;;;;;;5082749;28;20219;-74
2023/11/29 14:09:22;;;;;;;18.40;10.98;;;3.60;99.90;;;;;;5075351;28;20200;-74
2023/11/29 14:12:08;;;;;;;17.80;12.60;;;3.60;99.90;;;;;;5075211;28;20200;-74
2023/11/29 14:14:53;;;;;;;15.27;11.55;;;3.70;99.90;;;;;;5070525;28;20280;-74